sensor_id;sensor_type;location;lat;lon;timestamp;temperature;humidity
46720;DHT22;32452;51.382;-0.002;2022-10-31T00:02:12;12.50;99.90
46720;DHT22;32452;51.382;-0.002;2022-10-31T00:04:58;12.50;99.90
46720;DHT22;32452;51.382;-0.002;2022-10-31T00:07:43;12.50;99.90
46720;DHT22;32452;51.382;-0.002;2022-10-31T00:10:29;12.60;99.90
46720;DHT22;32452;51.382;-0.002;2022-10-31T00:13:14;12.60;99.90
46720;DHT22;32452;51.382;-0.002;2022-10-31T00:16:00;12.70;99.90
46720;DHT22;32452;51.382;-0.002;2022-10-31T00:18:54;12.70;99.90
46720;DHT22;32452;51.382;-0.002;2022-10-31T00:21:39;12.70;99.90
46720;DHT22;32452;51.382;-0.002;2022-10-31T00:24:25;12.70;99.90
46720;DHT22;32452;51.382;-0.002;2022-10-31T00:27:10;12.70;99.90
46720;DHT22;32452;51.382;-0.002;2022-10-31T00:29:56;12.70;99.90
46720;DHT22;32452;51.382;-0.002;2022-10-31T00:32:41;12.70;99.90
46720;DHT22;32452;51.382;-0.002;2022-10-31T00:35:27;12.70;99.90
46720;DHT22;32452;51.382;-0.002;2022-10-31T00:38:13;12.70;99.90
46720;DHT22;32452;51.382;-0.002;2022-10-31T00:40:58;12.70;99.90
46720;DHT22;32452;51.382;-0.002;2022-10-31T00:43:44;12.70;99.90
46720;DHT22;32452;51.382;-0.002;2022-10-31T00:46:30;12.70;99.90
46720;DHT22;32452;51.382;-0.002;2022-10-31T00:49:15;12.60;99.90
46720;DHT22;32452;51.382;-0.002;2022-10-31T00:52:01;12.60;99.90
46720;DHT22;32452;51.382;-0.002;2022-10-31T00:54:46;12.50;99.90
46720;DHT22;32452;51.382;-0.002;2022-10-31T00:57:32;12.50;99.90
46720;DHT22;32452;51.382;-0.002;2022-10-31T01:00:17;12.50;99.90
46720;DHT22;32452;51.382;-0.002;2022-10-31T01:03:03;12.50;99.90
46720;DHT22;32452;51.382;-0.002;2022-10-31T01:08:47;12.50;99.90
46720;DHT22;32452;51.382;-0.002;2022-10-31T01:11:33;12.50;99.90
46720;DHT22;32452;51.382;-0.002;2022-10-31T01:14:19;12.50;99.90
46720;DHT22;32452;51.382;-0.002;2022-10-31T01:17:04;12.60;99.90
46720;DHT22;32452;51.382;-0.002;2022-10-31T01:19:50;12.60;99.90
46720;DHT22;32452;51.382;-0.002;2022-10-31T01:22:35;12.60;99.90
46720;DHT22;32452;51.382;-0.002;2022-10-31T01:25:21;12.60;99.90
46720;DHT22;32452;51.382;-0.002;2022-10-31T01:28:07;12.50;99.90
46720;DHT22;32452;51.382;-0.002;2022-10-31T01:30:52;12.50;99.90
46720;DHT22;32452;51.382;-0.002;2022-10-31T01:33:38;12.50;99.90
46720;DHT22;32452;51.382;-0.002;2022-10-31T01:36:32;12.50;99.90
46720;DHT22;32452;51.382;-0.002;2022-10-31T01:39:18;12.50;99.90
46720;DHT22;32452;51.382;-0.002;2022-10-31T01:42:04;12.40;99.90
46720;DHT22;32452;51.382;-0.002;2022-10-31T01:44:56;12.40;99.90
46720;DHT22;32452;51.382;-0.002;2022-10-31T01:47:45;12.40;99.90
46720;DHT22;32452;51.382;-0.002;2022-10-31T01:50:35;12.40;99.90
46720;DHT22;32452;51.382;-0.002;2022-10-31T01:53:23;12.50;99.90
46720;DHT22;32452;51.382;-0.002;2022-10-31T01:56:13;12.50;99.90
46720;DHT22;32452;51.382;-0.002;2022-10-31T01:58:59;12.50;99.90
46720;DHT22;32452;51.382;-0.002;2022-10-31T02:01:47;12.60;99.90
46720;DHT22;32452;51.382;-0.002;2022-10-31T02:04:35;12.60;99.90
46720;DHT22;32452;51.382;-0.002;2022-10-31T02:07:34;12.50;99.90
46720;DHT22;32452;51.382;-0.002;2022-10-31T02:10:24;12.60;99.90
46720;DHT22;32452;51.382;-0.002;2022-10-31T02:13:10;12.60;99.90
46720;DHT22;32452;51.382;-0.002;2022-10-31T02:15:59;12.60;99.90
46720;DHT22;32452;51.382;-0.002;2022-10-31T02:18:45;12.60;99.90
46720;DHT22;32452;51.382;-0.002;2022-10-31T02:21:49;12.70;99.90
46720;DHT22;32452;51.382;-0.002;2022-10-31T02:25:13;12.70;99.90
46720;DHT22;32452;51.382;-0.002;2022-10-31T02:28:16;12.70;99.90
46720;DHT22;32452;51.382;-0.002;2022-10-31T02:34:37;12.80;99.90
46720;DHT22;32452;51.382;-0.002;2022-10-31T02:37:34;12.80;99.90
46720;DHT22;32452;51.382;-0.002;2022-10-31T02:40:33;12.80;99.90
46720;DHT22;32452;51.382;-0.002;2022-10-31T02:46:34;12.80;99.90
46720;DHT22;32452;51.382;-0.002;2022-10-31T02:52:35;12.90;99.90
46720;DHT22;32452;51.382;-0.002;2022-10-31T02:58:14;12.90;99.90
46720;DHT22;32452;51.382;-0.002;2022-10-31T03:01:22;12.80;99.90
46720;DHT22;32452;51.382;-0.002;2022-10-31T03:04:16;12.80;99.90
46720;DHT22;32452;51.382;-0.002;2022-10-31T03:13:10;12.80;99.90
46720;DHT22;32452;51.382;-0.002;2022-10-31T03:16:23;12.90;99.90
46720;DHT22;32452;51.382;-0.002;2022-10-31T03:19:28;12.90;99.90
46720;DHT22;32452;51.382;-0.002;2022-10-31T03:22:23;12.90;99.90
46720;DHT22;32452;51.382;-0.002;2022-10-31T03:25:09;12.90;99.90
46720;DHT22;32452;51.382;-0.002;2022-10-31T03:27:57;12.90;99.90
46720;DHT22;32452;51.382;-0.002;2022-10-31T03:30:45;12.90;99.90
46720;DHT22;32452;51.382;-0.002;2022-10-31T03:33:34;12.90;99.90
46720;DHT22;32452;51.382;-0.002;2022-10-31T03:36:20;13.00;99.90
46720;DHT22;32452;51.382;-0.002;2022-10-31T03:39:09;12.90;99.90
46720;DHT22;32452;51.382;-0.002;2022-10-31T03:42:05;13.00;99.90
46720;DHT22;32452;51.382;-0.002;2022-10-31T03:47:50;13.00;99.90
46720;DHT22;32452;51.382;-0.002;2022-10-31T03:53:42;13.00;99.90
46720;DHT22;32452;51.382;-0.002;2022-10-31T03:56:57;13.00;99.90
46720;DHT22;32452;51.382;-0.002;2022-10-31T03:59:44;13.00;99.90
46720;DHT22;32452;51.382;-0.002;2022-10-31T04:02:33;13.00;99.90
46720;DHT22;32452;51.382;-0.002;2022-10-31T04:05:20;13.00;99.90
46720;DHT22;32452;51.382;-0.002;2022-10-31T04:08:09;13.00;99.90
46720;DHT22;32452;51.382;-0.002;2022-10-31T04:10:57;13.00;99.90
46720;DHT22;32452;51.382;-0.002;2022-10-31T04:13:44;13.00;99.90
46720;DHT22;32452;51.382;-0.002;2022-10-31T04:16:31;13.00;99.90
46720;DHT22;32452;51.382;-0.002;2022-10-31T04:19:16;13.00;99.90
46720;DHT22;32452;51.382;-0.002;2022-10-31T04:22:02;12.90;99.90
46720;DHT22;32452;51.382;-0.002;2022-10-31T04:24:47;12.90;99.90
46720;DHT22;32452;51.382;-0.002;2022-10-31T04:27:33;12.90;99.90
46720;DHT22;32452;51.382;-0.002;2022-10-31T04:30:18;12.90;99.90
46720;DHT22;32452;51.382;-0.002;2022-10-31T04:33:04;12.90;99.90
46720;DHT22;32452;51.382;-0.002;2022-10-31T04:35:49;12.90;99.90
46720;DHT22;32452;51.382;-0.002;2022-10-31T04:38:35;12.80;99.90
46720;DHT22;32452;51.382;-0.002;2022-10-31T04:41:20;12.80;99.90
46720;DHT22;32452;51.382;-0.002;2022-10-31T04:44:06;12.80;99.90
46720;DHT22;32452;51.382;-0.002;2022-10-31T04:46:51;12.80;99.90
46720;DHT22;32452;51.382;-0.002;2022-10-31T04:49:37;12.70;99.90
46720;DHT22;32452;51.382;-0.002;2022-10-31T04:52:22;12.70;99.90
46720;DHT22;32452;51.382;-0.002;2022-10-31T04:55:09;12.70;99.90
46720;DHT22;32452;51.382;-0.002;2022-10-31T04:57:55;12.70;99.90
46720;DHT22;32452;51.382;-0.002;2022-10-31T05:00:40;12.70;99.90
46720;DHT22;32452;51.382;-0.002;2022-10-31T05:03:26;12.70;99.90
46720;DHT22;32452;51.382;-0.002;2022-10-31T05:06:11;12.60;99.90
46720;DHT22;32452;51.382;-0.002;2022-10-31T05:08:57;12.70;99.90
46720;DHT22;32452;51.382;-0.002;2022-10-31T05:11:43;12.70;99.90
46720;DHT22;32452;51.382;-0.002;2022-10-31T05:14:29;12.60;99.90
46720;DHT22;32452;51.382;-0.002;2022-10-31T05:17:15;12.60;99.90
46720;DHT22;32452;51.382;-0.002;2022-10-31T05:20:00;12.60;99.90
46720;DHT22;32452;51.382;-0.002;2022-10-31T05:22:51;12.60;99.90
46720;DHT22;32452;51.382;-0.002;2022-10-31T05:25:36;12.60;99.90
46720;DHT22;32452;51.382;-0.002;2022-10-31T05:28:22;12.60;99.90
46720;DHT22;32452;51.382;-0.002;2022-10-31T05:31:07;12.60;99.90
46720;DHT22;32452;51.382;-0.002;2022-10-31T05:33:52;12.50;99.90
46720;DHT22;32452;51.382;-0.002;2022-10-31T05:36:38;12.50;99.90
46720;DHT22;32452;51.382;-0.002;2022-10-31T05:39:23;12.50;99.90
46720;DHT22;32452;51.382;-0.002;2022-10-31T05:42:09;12.40;99.90
46720;DHT22;32452;51.382;-0.002;2022-10-31T05:44:54;12.40;99.90
46720;DHT22;32452;51.382;-0.002;2022-10-31T05:47:40;12.40;99.90
46720;DHT22;32452;51.382;-0.002;2022-10-31T05:50:27;12.40;99.90
46720;DHT22;32452;51.382;-0.002;2022-10-31T05:53:13;12.40;99.90
46720;DHT22;32452;51.382;-0.002;2022-10-31T05:55:58;12.30;99.90
46720;DHT22;32452;51.382;-0.002;2022-10-31T05:58:44;12.30;99.90
46720;DHT22;32452;51.382;-0.002;2022-10-31T06:01:30;12.20;99.90
46720;DHT22;32452;51.382;-0.002;2022-10-31T06:04:15;12.10;99.90
46720;DHT22;32452;51.382;-0.002;2022-10-31T06:07:01;12.20;99.90
46720;DHT22;32452;51.382;-0.002;2022-10-31T06:09:46;12.10;99.90
46720;DHT22;32452;51.382;-0.002;2022-10-31T06:12:33;12.10;99.90
46720;DHT22;32452;51.382;-0.002;2022-10-31T06:15:22;12.10;99.90
46720;DHT22;32452;51.382;-0.002;2022-10-31T06:18:09;12.10;99.90
46720;DHT22;32452;51.382;-0.002;2022-10-31T06:20:54;12.20;99.90
46720;DHT22;32452;51.382;-0.002;2022-10-31T06:23:40;12.10;99.90
46720;DHT22;32452;51.382;-0.002;2022-10-31T06:26:26;12.10;99.90
46720;DHT22;32452;51.382;-0.002;2022-10-31T06:29:11;12.10;99.90
46720;DHT22;32452;51.382;-0.002;2022-10-31T06:31:56;12.10;99.90
46720;DHT22;32452;51.382;-0.002;2022-10-31T06:34:42;12.10;99.90
46720;DHT22;32452;51.382;-0.002;2022-10-31T06:37:28;12.00;99.90
46720;DHT22;32452;51.382;-0.002;2022-10-31T06:40:14;12.00;99.90
46720;DHT22;32452;51.382;-0.002;2022-10-31T06:43:00;11.90;99.90
46720;DHT22;32452;51.382;-0.002;2022-10-31T06:45:46;11.90;99.90
46720;DHT22;32452;51.382;-0.002;2022-10-31T06:48:32;11.80;99.90
46720;DHT22;32452;51.382;-0.002;2022-10-31T06:51:18;11.80;99.90
46720;DHT22;32452;51.382;-0.002;2022-10-31T06:54:04;11.70;99.90
46720;DHT22;32452;51.382;-0.002;2022-10-31T06:56:49;11.70;99.90
46720;DHT22;32452;51.382;-0.002;2022-10-31T06:59:35;11.70;99.90
46720;DHT22;32452;51.382;-0.002;2022-10-31T07:02:20;11.60;99.90
46720;DHT22;32452;51.382;-0.002;2022-10-31T07:05:06;11.60;99.90
46720;DHT22;32452;51.382;-0.002;2022-10-31T07:07:59;11.60;99.90
46720;DHT22;32452;51.382;-0.002;2022-10-31T07:10:54;11.60;99.90
46720;DHT22;32452;51.382;-0.002;2022-10-31T07:13:40;11.70;99.90
46720;DHT22;32452;51.382;-0.002;2022-10-31T07:16:25;11.70;99.90
46720;DHT22;32452;51.382;-0.002;2022-10-31T07:19:10;11.80;99.90
46720;DHT22;32452;51.382;-0.002;2022-10-31T07:21:57;11.80;99.90
46720;DHT22;32452;51.382;-0.002;2022-10-31T07:24:42;11.80;99.90
46720;DHT22;32452;51.382;-0.002;2022-10-31T07:27:28;11.90;99.90
46720;DHT22;32452;51.382;-0.002;2022-10-31T07:30:14;11.90;99.90
46720;DHT22;32452;51.382;-0.002;2022-10-31T07:33:00;12.00;99.90
46720;DHT22;32452;51.382;-0.002;2022-10-31T07:35:45;12.00;99.90
46720;DHT22;32452;51.382;-0.002;2022-10-31T07:38:31;12.00;99.90
46720;DHT22;32452;51.382;-0.002;2022-10-31T07:41:16;12.00;99.90
46720;DHT22;32452;51.382;-0.002;2022-10-31T07:44:02;12.00;99.90
46720;DHT22;32452;51.382;-0.002;2022-10-31T07:46:48;12.10;99.90
46720;DHT22;32452;51.382;-0.002;2022-10-31T07:49:33;12.10;99.90
46720;DHT22;32452;51.382;-0.002;2022-10-31T07:52:19;12.10;99.90
46720;DHT22;32452;51.382;-0.002;2022-10-31T07:55:06;12.20;99.90
46720;DHT22;32452;51.382;-0.002;2022-10-31T07:57:58;12.20;99.90
46720;DHT22;32452;51.382;-0.002;2022-10-31T08:00:46;12.20;99.90
46720;DHT22;32452;51.382;-0.002;2022-10-31T08:03:32;12.30;99.90
46720;DHT22;32452;51.382;-0.002;2022-10-31T08:06:17;12.30;99.90
46720;DHT22;32452;51.382;-0.002;2022-10-31T08:09:03;12.40;99.90
46720;DHT22;32452;51.382;-0.002;2022-10-31T08:11:48;12.40;99.90
46720;DHT22;32452;51.382;-0.002;2022-10-31T08:14:34;12.50;99.90
46720;DHT22;32452;51.382;-0.002;2022-10-31T08:17:20;12.50;99.90
46720;DHT22;32452;51.382;-0.002;2022-10-31T08:20:06;12.60;99.90
46720;DHT22;32452;51.382;-0.002;2022-10-31T08:23:03;12.60;99.90
46720;DHT22;32452;51.382;-0.002;2022-10-31T08:25:49;13.00;99.90
46720;DHT22;32452;51.382;-0.002;2022-10-31T08:28:34;13.70;99.90
46720;DHT22;32452;51.382;-0.002;2022-10-31T08:31:20;14.60;99.90
46720;DHT22;32452;51.382;-0.002;2022-10-31T08:34:06;15.30;99.90
46720;DHT22;32452;51.382;-0.002;2022-10-31T08:36:52;16.00;99.90
46720;DHT22;32452;51.382;-0.002;2022-10-31T08:39:37;16.50;99.90
46720;DHT22;32452;51.382;-0.002;2022-10-31T08:42:22;17.10;99.90
46720;DHT22;32452;51.382;-0.002;2022-10-31T08:45:08;17.80;99.90
46720;DHT22;32452;51.382;-0.002;2022-10-31T08:47:59;18.40;99.90
46720;DHT22;32452;51.382;-0.002;2022-10-31T08:50:46;19.00;99.90
46720;DHT22;32452;51.382;-0.002;2022-10-31T08:53:32;19.40;99.90
46720;DHT22;32452;51.382;-0.002;2022-10-31T08:56:17;19.90;99.90
46720;DHT22;32452;51.382;-0.002;2022-10-31T08:59:03;20.20;99.90
46720;DHT22;32452;51.382;-0.002;2022-10-31T09:01:48;20.40;99.90
46720;DHT22;32452;51.382;-0.002;2022-10-31T09:04:34;20.60;99.30
46720;DHT22;32452;51.382;-0.002;2022-10-31T09:07:19;20.80;98.50
46720;DHT22;32452;51.382;-0.002;2022-10-31T09:10:06;21.00;96.70
46720;DHT22;32452;51.382;-0.002;2022-10-31T09:13:07;21.10;95.00
46720;DHT22;32452;51.382;-0.002;2022-10-31T09:15:55;21.10;93.70
46720;DHT22;32452;51.382;-0.002;2022-10-31T09:18:41;21.20;93.30
46720;DHT22;32452;51.382;-0.002;2022-10-31T09:21:26;21.20;90.90
46720;DHT22;32452;51.382;-0.002;2022-10-31T09:24:12;21.10;90.80
46720;DHT22;32452;51.382;-0.002;2022-10-31T09:26:58;21.00;89.60
46720;DHT22;32452;51.382;-0.002;2022-10-31T09:29:43;21.10;90.30
46720;DHT22;32452;51.382;-0.002;2022-10-31T09:32:29;21.00;89.30
46720;DHT22;32452;51.382;-0.002;2022-10-31T09:35:14;21.00;90.00
46720;DHT22;32452;51.382;-0.002;2022-10-31T09:38:09;21.00;89.60
46720;DHT22;32452;51.382;-0.002;2022-10-31T09:41:05;21.20;89.70
46720;DHT22;32452;51.382;-0.002;2022-10-31T09:44:07;21.50;87.50
46720;DHT22;32452;51.382;-0.002;2022-10-31T09:47:05;21.90;86.80
46720;DHT22;32452;51.382;-0.002;2022-10-31T09:50:12;22.20;82.70
46720;DHT22;32452;51.382;-0.002;2022-10-31T09:53:03;22.30;81.40
46720;DHT22;32452;51.382;-0.002;2022-10-31T09:55:51;22.00;81.00
46720;DHT22;32452;51.382;-0.002;2022-10-31T09:58:44;21.30;80.60
46720;DHT22;32452;51.382;-0.002;2022-10-31T10:01:47;20.60;82.70
46720;DHT22;32452;51.382;-0.002;2022-10-31T10:04:36;20.40;85.60
46720;DHT22;32452;51.382;-0.002;2022-10-31T10:10:20;20.50;84.90
46720;DHT22;32452;51.382;-0.002;2022-10-31T10:13:32;20.60;84.70
46720;DHT22;32452;51.382;-0.002;2022-10-31T10:29:06;21.90;77.50
46720;DHT22;32452;51.382;-0.002;2022-10-31T10:31:59;22.10;76.50
46720;DHT22;32452;51.382;-0.002;2022-10-31T10:34:50;22.10;74.30
46720;DHT22;32452;51.382;-0.002;2022-10-31T10:37:40;22.30;74.80
46720;DHT22;32452;51.382;-0.002;2022-10-31T10:40:28;22.50;72.50
46720;DHT22;32452;51.382;-0.002;2022-10-31T10:43:29;22.50;72.90
46720;DHT22;32452;51.382;-0.002;2022-10-31T10:49:32;22.60;71.30
46720;DHT22;32452;51.382;-0.002;2022-10-31T10:55:47;22.50;69.80
46720;DHT22;32452;51.382;-0.002;2022-10-31T10:58:33;22.60;69.40
46720;DHT22;32452;51.382;-0.002;2022-10-31T11:01:22;22.70;68.20
46720;DHT22;32452;51.382;-0.002;2022-10-31T11:04:29;22.90;66.70
46720;DHT22;32452;51.382;-0.002;2022-10-31T11:07:15;22.80;65.30
46720;DHT22;32452;51.382;-0.002;2022-10-31T11:10:05;22.70;65.70
46720;DHT22;32452;51.382;-0.002;2022-10-31T11:13:02;22.40;66.40
46720;DHT22;32452;51.382;-0.002;2022-10-31T11:18:46;21.60;67.90
46720;DHT22;32452;51.382;-0.002;2022-10-31T11:21:32;21.40;68.80
46720;DHT22;32452;51.382;-0.002;2022-10-31T11:24:26;21.10;69.20
46720;DHT22;32452;51.382;-0.002;2022-10-31T11:27:20;21.00;69.10
46720;DHT22;32452;51.382;-0.002;2022-10-31T11:30:07;21.00;68.80
46720;DHT22;32452;51.382;-0.002;2022-10-31T11:32:53;21.10;69.20
46720;DHT22;32452;51.382;-0.002;2022-10-31T11:35:40;21.60;70.20
46720;DHT22;32452;51.382;-0.002;2022-10-31T11:38:40;22.20;68.20
46720;DHT22;32452;51.382;-0.002;2022-10-31T11:41:37;22.30;65.90
46720;DHT22;32452;51.382;-0.002;2022-10-31T11:44:29;22.10;64.20
46720;DHT22;32452;51.382;-0.002;2022-10-31T11:47:26;22.00;64.70
46720;DHT22;32452;51.382;-0.002;2022-10-31T11:50:25;21.80;64.70
46720;DHT22;32452;51.382;-0.002;2022-10-31T11:53:18;21.50;64.60
46720;DHT22;32452;51.382;-0.002;2022-10-31T11:56:05;21.10;65.10
46720;DHT22;32452;51.382;-0.002;2022-10-31T11:59:01;21.00;66.30
46720;DHT22;32452;51.382;-0.002;2022-10-31T12:01:49;21.00;66.20
46720;DHT22;32452;51.382;-0.002;2022-10-31T12:04:43;20.90;66.30
46720;DHT22;32452;51.382;-0.002;2022-10-31T12:07:30;21.00;66.70
46720;DHT22;32452;51.382;-0.002;2022-10-31T12:10:16;21.10;66.30
46720;DHT22;32452;51.382;-0.002;2022-10-31T12:19:21;20.70;66.60
46720;DHT22;32452;51.382;-0.002;2022-10-31T12:22:13;20.40;67.10
46720;DHT22;32452;51.382;-0.002;2022-10-31T12:25:24;20.20;68.30
46720;DHT22;32452;51.382;-0.002;2022-10-31T12:28:28;20.00;69.60
46720;DHT22;32452;51.382;-0.002;2022-10-31T12:59:44;20.40;70.20
46720;DHT22;32452;51.382;-0.002;2022-10-31T13:02:36;20.40;70.60
46720;DHT22;32452;51.382;-0.002;2022-10-31T13:05:39;20.40;69.50
46720;DHT22;32452;51.382;-0.002;2022-10-31T13:14:55;19.60;70.30
46720;DHT22;32452;51.382;-0.002;2022-10-31T13:17:46;19.40;71.20
46720;DHT22;32452;51.382;-0.002;2022-10-31T13:20:39;19.30;72.00
46720;DHT22;32452;51.382;-0.002;2022-10-31T13:23:33;19.30;73.00
46720;DHT22;32452;51.382;-0.002;2022-10-31T13:26:41;19.30;72.70
46720;DHT22;32452;51.382;-0.002;2022-10-31T13:29:33;19.30;72.70
46720;DHT22;32452;51.382;-0.002;2022-10-31T13:32:19;19.20;73.40
46720;DHT22;32452;51.382;-0.002;2022-10-31T13:35:07;19.10;73.90
46720;DHT22;32452;51.382;-0.002;2022-10-31T13:46:59;18.90;76.20
46720;DHT22;32452;51.382;-0.002;2022-10-31T13:49:45;19.00;76.70
46720;DHT22;32452;51.382;-0.002;2022-10-31T13:52:30;19.00;75.80
46720;DHT22;32452;51.382;-0.002;2022-10-31T13:55:36;19.00;75.80
46720;DHT22;32452;51.382;-0.002;2022-10-31T13:58:25;18.80;76.00
46720;DHT22;32452;51.382;-0.002;2022-10-31T14:01:19;18.70;76.70
46720;DHT22;32452;51.382;-0.002;2022-10-31T14:04:14;18.50;77.60
46720;DHT22;32452;51.382;-0.002;2022-10-31T14:10:02;18.30;79.10
46720;DHT22;32452;51.382;-0.002;2022-10-31T14:12:49;18.10;79.80
46720;DHT22;32452;51.382;-0.002;2022-10-31T14:15:36;18.00;80.60
46720;DHT22;32452;51.382;-0.002;2022-10-31T14:18:24;18.00;81.30
46720;DHT22;32452;51.382;-0.002;2022-10-31T14:30:21;17.70;82.80
46720;DHT22;32452;51.382;-0.002;2022-10-31T14:33:18;17.60;83.30
46720;DHT22;32452;51.382;-0.002;2022-10-31T14:36:11;17.60;84.10
46720;DHT22;32452;51.382;-0.002;2022-10-31T14:39:24;17.50;84.50
46720;DHT22;32452;51.382;-0.002;2022-10-31T14:42:32;17.50;85.10
46720;DHT22;32452;51.382;-0.002;2022-10-31T14:49:02;17.30;85.90
46720;DHT22;32452;51.382;-0.002;2022-10-31T14:51:50;17.30;86.40
46720;DHT22;32452;51.382;-0.002;2022-10-31T14:54:41;17.20;87.10
46720;DHT22;32452;51.382;-0.002;2022-10-31T14:57:34;17.20;87.50
46720;DHT22;32452;51.382;-0.002;2022-10-31T15:00:22;17.10;87.70
46720;DHT22;32452;51.382;-0.002;2022-10-31T15:03:22;17.10;87.70
46720;DHT22;32452;51.382;-0.002;2022-10-31T15:06:16;17.10;88.20
46720;DHT22;32452;51.382;-0.002;2022-10-31T15:09:02;17.00;88.60
46720;DHT22;32452;51.382;-0.002;2022-10-31T15:11:48;17.00;89.20
46720;DHT22;32452;51.382;-0.002;2022-10-31T15:14:34;16.90;89.80
46720;DHT22;32452;51.382;-0.002;2022-10-31T15:17:20;16.80;90.10
46720;DHT22;32452;51.382;-0.002;2022-10-31T15:20:06;16.80;90.40
46720;DHT22;32452;51.382;-0.002;2022-10-31T15:22:55;16.80;90.60
46720;DHT22;32452;51.382;-0.002;2022-10-31T15:25:41;16.70;90.90
46720;DHT22;32452;51.382;-0.002;2022-10-31T15:28:27;16.70;91.10
46720;DHT22;32452;51.382;-0.002;2022-10-31T15:31:15;16.70;91.40
46720;DHT22;32452;51.382;-0.002;2022-10-31T15:34:06;16.70;91.60
46720;DHT22;32452;51.382;-0.002;2022-10-31T15:36:56;16.60;91.80
46720;DHT22;32452;51.382;-0.002;2022-10-31T15:39:43;16.60;92.10
46720;DHT22;32452;51.382;-0.002;2022-10-31T15:42:34;16.50;92.30
46720;DHT22;32452;51.382;-0.002;2022-10-31T15:48:26;16.50;92.80
46720;DHT22;32452;51.382;-0.002;2022-10-31T15:51:11;16.50;93.00
46720;DHT22;32452;51.382;-0.002;2022-10-31T15:53:58;16.40;93.30
46720;DHT22;32452;51.382;-0.002;2022-10-31T15:56:44;16.40;93.60
46720;DHT22;32452;51.382;-0.002;2022-10-31T15:59:31;16.40;93.70
46720;DHT22;32452;51.382;-0.002;2022-10-31T16:02:22;16.30;93.90
46720;DHT22;32452;51.382;-0.002;2022-10-31T16:05:17;16.30;94.60
46720;DHT22;32452;51.382;-0.002;2022-10-31T16:08:03;16.40;94.40
46720;DHT22;32452;51.382;-0.002;2022-10-31T16:10:48;16.30;94.40
46720;DHT22;32452;51.382;-0.002;2022-10-31T16:13:36;16.30;94.60
46720;DHT22;32452;51.382;-0.002;2022-10-31T16:16:23;16.30;94.80
46720;DHT22;32452;51.382;-0.002;2022-10-31T16:19:25;16.20;95.00
46720;DHT22;32452;51.382;-0.002;2022-10-31T16:22:14;16.20;95.10
46720;DHT22;32452;51.382;-0.002;2022-10-31T16:25:12;16.20;95.30
46720;DHT22;32452;51.382;-0.002;2022-10-31T16:28:24;16.20;95.40
46720;DHT22;32452;51.382;-0.002;2022-10-31T16:31:15;16.20;95.60
46720;DHT22;32452;51.382;-0.002;2022-10-31T16:34:10;16.20;95.70
46720;DHT22;32452;51.382;-0.002;2022-10-31T16:36:57;16.10;95.90
46720;DHT22;32452;51.382;-0.002;2022-10-31T16:39:42;16.10;96.00
46720;DHT22;32452;51.382;-0.002;2022-10-31T16:42:28;16.10;96.20
46720;DHT22;32452;51.382;-0.002;2022-10-31T16:45:18;16.10;96.30
46720;DHT22;32452;51.382;-0.002;2022-10-31T16:48:12;16.10;96.40
46720;DHT22;32452;51.382;-0.002;2022-10-31T16:50:59;16.00;96.50
46720;DHT22;32452;51.382;-0.002;2022-10-31T16:53:45;16.00;96.60
46720;DHT22;32452;51.382;-0.002;2022-10-31T16:56:33;16.00;96.70
46720;DHT22;32452;51.382;-0.002;2022-10-31T17:03:57;15.90;96.90
46720;DHT22;32452;51.382;-0.002;2022-10-31T17:06:43;15.90;97.30
46720;DHT22;32452;51.382;-0.002;2022-10-31T17:09:28;15.90;97.10
46720;DHT22;32452;51.382;-0.002;2022-10-31T17:12:18;15.90;97.30
46720;DHT22;32452;51.382;-0.002;2022-10-31T17:15:06;15.90;97.40
46720;DHT22;32452;51.382;-0.002;2022-10-31T17:17:52;15.90;97.70
46720;DHT22;32452;51.382;-0.002;2022-10-31T17:20:38;15.90;98.10
46720;DHT22;32452;51.382;-0.002;2022-10-31T17:23:24;15.80;98.60
46720;DHT22;32452;51.382;-0.002;2022-10-31T17:26:10;15.70;99.10
46720;DHT22;32452;51.382;-0.002;2022-10-31T17:28:55;15.60;99.80
46720;DHT22;32452;51.382;-0.002;2022-10-31T17:31:41;15.50;99.90
46720;DHT22;32452;51.382;-0.002;2022-10-31T17:34:27;15.50;99.90
46720;DHT22;32452;51.382;-0.002;2022-10-31T17:37:13;15.40;99.90
46720;DHT22;32452;51.382;-0.002;2022-10-31T17:39:58;15.40;99.90
46720;DHT22;32452;51.382;-0.002;2022-10-31T17:42:54;15.30;99.90
46720;DHT22;32452;51.382;-0.002;2022-10-31T17:45:41;15.30;99.90
46720;DHT22;32452;51.382;-0.002;2022-10-31T17:48:27;15.20;99.90
46720;DHT22;32452;51.382;-0.002;2022-10-31T17:51:13;15.20;99.90
46720;DHT22;32452;51.382;-0.002;2022-10-31T17:53:58;15.20;99.90
46720;DHT22;32452;51.382;-0.002;2022-10-31T17:56:44;15.20;99.90
46720;DHT22;32452;51.382;-0.002;2022-10-31T17:59:29;15.10;99.90
46720;DHT22;32452;51.382;-0.002;2022-10-31T18:02:15;15.10;99.90
46720;DHT22;32452;51.382;-0.002;2022-10-31T18:05:00;15.10;99.90
46720;DHT22;32452;51.382;-0.002;2022-10-31T18:07:50;15.00;99.90
46720;DHT22;32452;51.382;-0.002;2022-10-31T18:10:37;15.00;99.90
46720;DHT22;32452;51.382;-0.002;2022-10-31T18:13:23;15.10;99.90
46720;DHT22;32452;51.382;-0.002;2022-10-31T18:16:13;15.00;99.90
46720;DHT22;32452;51.382;-0.002;2022-10-31T18:18:59;15.10;99.90
46720;DHT22;32452;51.382;-0.002;2022-10-31T18:21:46;15.10;99.90
46720;DHT22;32452;51.382;-0.002;2022-10-31T18:24:32;15.10;99.90
46720;DHT22;32452;51.382;-0.002;2022-10-31T18:27:17;15.10;99.90
46720;DHT22;32452;51.382;-0.002;2022-10-31T18:30:06;15.10;99.90
46720;DHT22;32452;51.382;-0.002;2022-10-31T18:32:52;15.10;99.90
46720;DHT22;32452;51.382;-0.002;2022-10-31T18:35:38;15.20;99.90
46720;DHT22;32452;51.382;-0.002;2022-10-31T18:38:24;15.20;99.90
46720;DHT22;32452;51.382;-0.002;2022-10-31T18:41:10;15.20;99.90
46720;DHT22;32452;51.382;-0.002;2022-10-31T18:43:57;15.20;99.90
46720;DHT22;32452;51.382;-0.002;2022-10-31T18:46:44;15.20;99.90
46720;DHT22;32452;51.382;-0.002;2022-10-31T18:49:29;15.20;99.90
46720;DHT22;32452;51.382;-0.002;2022-10-31T18:52:17;15.20;99.90
46720;DHT22;32452;51.382;-0.002;2022-10-31T18:55:03;15.20;99.90
46720;DHT22;32452;51.382;-0.002;2022-10-31T18:57:48;15.30;99.90
46720;DHT22;32452;51.382;-0.002;2022-10-31T19:00:35;15.30;99.90
46720;DHT22;32452;51.382;-0.002;2022-10-31T19:03:20;15.30;99.90
46720;DHT22;32452;51.382;-0.002;2022-10-31T19:06:11;15.30;99.90
46720;DHT22;32452;51.382;-0.002;2022-10-31T19:08:58;15.30;99.90
46720;DHT22;32452;51.382;-0.002;2022-10-31T19:11:44;15.30;99.90
46720;DHT22;32452;51.382;-0.002;2022-10-31T19:14:29;15.30;99.90
46720;DHT22;32452;51.382;-0.002;2022-10-31T19:17:15;15.40;99.90
46720;DHT22;32452;51.382;-0.002;2022-10-31T19:20:00;15.30;99.90
46720;DHT22;32452;51.382;-0.002;2022-10-31T19:22:46;15.40;99.90
46720;DHT22;32452;51.382;-0.002;2022-10-31T19:25:31;15.30;99.90
46720;DHT22;32452;51.382;-0.002;2022-10-31T19:28:17;15.30;99.90
46720;DHT22;32452;51.382;-0.002;2022-10-31T19:31:03;15.40;99.90
46720;DHT22;32452;51.382;-0.002;2022-10-31T19:33:49;15.40;99.90
46720;DHT22;32452;51.382;-0.002;2022-10-31T19:36:34;15.40;99.90